Time;durP1;ratioP1;P1;durP2;ratioP2;P2;SDS_P1;SDS_P2;PMS_P1;PMS_P2;Temp;Humidity;BMP_temperature;BMP_pressure;BME280_temperature;BME280_humidity;BME280_pressure;Samples;Min_cycle;Max_cycle;Signal;HPM_P1;HPM_P2
2023/05/04 00:00:32;;;;;;;3.42;1.88;;;19.80;56.00;;;;;;4974990;28;20039;-48
2023/05/04 00:02:57;;;;;;;1.67;1.42;;;19.80;55.90;;;;;;4977315;28;20041;-60
2023/05/04 00:05:23;;;;;;;3.05;1.85;;;19.70;55.90;;;;;;4978791;28;20031;-50
2023/05/04 00:07:48;;;;;;;3.15;1.75;;;19.70;55.80;;;;;;4973232;28;20038;-50
2023/05/04 00:10:14;;;;;;;3.10;1.60;;;19.80;55.90;;;;;;4974655;28;20073;-50
2023/05/04 00:12:41;;;;;;;2.63;1.33;;;19.70;55.80;;;;;;4966381;28;20759;-49
2023/05/04 00:15:07;;;;;;;2.25;1.75;;;19.70;55.80;;;;;;4972957;28;20065;-51
2023/05/04 00:17:32;;;;;;;3.47;1.65;;;19.70;55.80;;;;;;4970596;28;20050;-52
2023/05/04 00:19:57;;;;;;;1.40;1.30;;;19.70;55.80;;;;;;4946357;28;20034;-49
2023/05/04 00:22:23;;;;;;;3.10;1.60;;;19.70;55.80;;;;;;4965304;28;20471;-49
2023/05/04 00:24:48;;;;;;;2.20;1.45;;;19.70;55.80;;;;;;4966062;28;20031;-50
2023/05/04 00:27:14;;;;;;;1.77;1.40;;;19.70;55.80;;;;;;4972166;28;20031;-47
2023/05/04 00:29:40;;;;;;;3.53;1.60;;;19.70;55.80;;;;;;4968685;28;20041;-50
2023/05/04 00:32:05;;;;;;;3.00;1.80;;;19.70;55.90;;;;;;4955147;28;20597;-48
2023/05/04 00:34:33;;;;;;;1.98;1.67;;;19.70;55.90;;;;;;4966888;28;20117;-48
2023/05/04 00:36:58;;;;;;;1.70;1.50;;;19.70;55.90;;;;;;4970497;28;20382;-49
2023/05/04 00:39:24;;;;;;;2.35;1.42;;;19.70;55.80;;;;;;4969431;28;20033;-51
2023/05/04 00:41:49;;;;;;;3.15;1.60;;;19.60;55.80;;;;;;4962989;28;20118;-51
2023/05/04 00:44:15;;;;;;;2.00;1.40;;;19.70;55.90;;;;;;4959731;28;20035;-50
2023/05/04 00:46:41;;;;;;;3.47;1.65;;;19.60;55.80;;;;;;4962861;28;20035;-49
2023/05/04 00:49:07;;;;;;;2.70;1.65;;;19.60;55.80;;;;;;4946928;28;20047;-49
2023/05/04 00:51:33;;;;;;;2.15;1.27;;;19.60;55.90;;;;;;4967339;28;20060;-49
2023/05/04 00:53:59;;;;;;;2.35;1.40;;;19.60;55.80;;;;;;4966516;28;21650;-48
2023/05/04 00:56:26;;;;;;;1.67;1.25;;;19.60;55.90;;;;;;4971668;28;20117;-50
2023/05/04 00:58:53;;;;;;;2.95;1.35;;;19.60;55.80;;;;;;4969139;28;20117;-50
2023/05/04 01:01:20;;;;;;;2.05;1.50;;;19.60;55.90;;;;;;4972556;28;20042;-49
2023/05/04 01:03:47;;;;;;;1.65;1.30;;;19.60;55.90;;;;;;4969071;28;20038;-50
2023/05/04 01:06:32;;;;;;;2.55;1.52;;;19.60;55.90;;;;;;4970718;28;20447;-47
2023/05/04 01:09:13;;;;;;;1.50;1.30;;;19.60;55.80;;;;;;4968575;28;20039;-48
2023/05/04 01:11:44;;;;;;;3.00;1.35;;;19.60;56.00;;;;;;4964151;28;20038;-48
2023/05/04 01:14:13;;;;;;;2.53;1.45;;;19.50;55.90;;;;;;4972616;28;20178;-47
2023/05/04 01:16:38;;;;;;;1.55;1.10;;;19.60;55.90;;;;;;4962456;28;20050;-51
2023/05/04 01:19:04;;;;;;;1.50;1.20;;;19.50;55.80;;;;;;4965865;28;20088;-51
2023/05/04 01:21:30;;;;;;;2.80;1.38;;;19.60;55.90;;;;;;4966404;28;20564;-50
2023/05/04 01:24:38;;;;;;;2.40;1.30;;;19.50;55.80;;;;;;4970147;28;20085;-49
2023/05/04 01:27:09;;;;;;;1.88;1.55;;;19.50;55.80;;;;;;4968369;28;20492;-49
2023/05/04 01:29:51;;;;;;;1.60;1.50;;;19.50;55.80;;;;;;4971730;28;20097;-46
2023/05/04 01:32:18;;;;;;;3.00;1.48;;;19.60;55.80;;;;;;4972391;28;20034;-46
2023/05/04 01:34:43;;;;;;;1.77;1.52;;;19.50;55.80;;;;;;4968238;28;20039;-49
2023/05/04 01:37:09;;;;;;;1.00;0.90;;;19.50;55.80;;;;;;4973120;28;20056;-50
2023/05/04 01:39:35;;;;;;;2.00;1.42;;;19.50;55.80;;;;;;4963858;28;20527;-48
2023/05/04 01:42:01;;;;;;;2.45;1.30;;;19.50;55.70;;;;;;4969472;28;20038;-49
2023/05/04 01:44:26;;;;;;;1.10;1.00;;;19.50;55.80;;;;;;4965546;28;20485;-46
2023/05/04 01:46:52;;;;;;;1.42;1.13;;;19.50;55.70;;;;;;4963675;28;20046;-49
2023/05/04 01:49:17;;;;;;;2.45;1.15;;;19.50;55.80;;;;;;4965436;28;20031;-47
2023/05/04 01:51:45;;;;;;;1.10;1.00;;;19.50;55.80;;;;;;4967282;28;20034;-48
2023/05/04 01:54:11;;;;;;;2.78;1.30;;;19.50;55.70;;;;;;4969060;28;20037;-48
2023/05/04 01:56:36;;;;;;;2.10;1.08;;;19.50;55.70;;;;;;4969965;28;20042;-52
2023/05/04 01:59:02;;;;;;;2.92;1.80;;;19.50;55.80;;;;;;4971283;28;20038;-54
2023/05/04 02:01:27;;;;;;;1.40;1.20;;;19.50;55.80;;;;;;4961890;28;20031;-54
2023/05/04 02:03:53;;;;;;;1.63;1.00;;;19.50;55.70;;;;;;4966122;28;20049;-53
2023/05/04 02:06:18;;;;;;;1.85;1.17;;;19.50;55.70;;;;;;4971049;28;20178;-52
2023/05/04 02:08:45;;;;;;;2.22;1.20;;;19.50;55.70;;;;;;4968984;28;20302;-47
2023/05/04 02:11:10;;;;;;;2.50;1.65;;;19.40;55.60;;;;;;4962945;28;20100;-55
2023/05/04 02:13:36;;;;;;;1.67;1.20;;;19.40;55.70;;;;;;4964228;28;20034;-49
2023/05/04 02:16:01;;;;;;;1.15;1.05;;;19.40;55.70;;;;;;4963492;28;20049;-55
2023/05/04 02:18:27;;;;;;;1.58;1.05;;;19.40;55.70;;;;;;4965158;28;20081;-55
2023/05/04 02:20:52;;;;;;;2.97;1.30;;;19.40;55.80;;;;;;4965401;28;20031;-48
2023/05/04 02:23:18;;;;;;;2.45;1.23;;;19.40;55.70;;;;;;4968292;28;20034;-52
2023/05/04 02:25:43;;;;;;;1.30;1.10;;;19.40;55.70;;;;;;4969054;28;20105;-51
2023/05/04 02:28:09;;;;;;;1.58;1.30;;;19.40;55.80;;;;;;4971008;28;20042;-54
2023/05/04 02:30:34;;;;;;;2.42;1.55;;;19.40;55.80;;;;;;4964735;28;20042;-51
2023/05/04 02:33:00;;;;;;;1.27;1.10;;;19.30;55.70;;;;;;4969436;28;20510;-58
2023/05/04 02:35:25;;;;;;;1.65;1.20;;;19.30;55.80;;;;;;4972103;28;20034;-49
2023/05/04 02:37:51;;;;;;;1.67;1.27;;;19.30;55.80;;;;;;4968885;28;20572;-55
2023/05/04 02:40:16;;;;;;;1.35;1.20;;;19.30;55.80;;;;;;4971981;28;20238;-52
2023/05/04 02:42:42;;;;;;;1.92;1.40;;;19.20;55.70;;;;;;4952119;28;20037;-47
2023/05/04 02:45:08;;;;;;;1.80;1.30;;;19.30;55.80;;;;;;4965927;28;20043;-52
2023/05/04 02:47:33;;;;;;;2.33;1.10;;;19.30;55.80;;;;;;4937883;28;20043;-51
2023/05/04 02:49:59;;;;;;;3.28;1.30;;;19.30;56.40;;;;;;4965922;28;20027;-50
2023/05/04 02:52:24;;;;;;;1.38;1.20;;;19.30;55.80;;;;;;4967523;28;20144;-50
2023/05/04 02:54:50;;;;;;;1.65;1.17;;;19.30;55.70;;;;;;4969395;28;20121;-50
2023/05/04 02:57:15;;;;;;;1.58;1.20;;;19.20;55.70;;;;;;4970350;28;20634;-51
2023/05/04 02:59:41;;;;;;;3.63;1.23;;;19.30;55.70;;;;;;4967297;28;20109;-55
2023/05/04 03:02:06;;;;;;;2.67;1.17;;;19.30;55.80;;;;;;4971010;28;20085;-48
2023/05/04 03:04:32;;;;;;;2.60;1.17;;;19.20;55.70;;;;;;4964567;28;20126;-52
2023/05/04 03:06:57;;;;;;;2.42;1.10;;;19.30;55.70;;;;;;4970041;28;20050;-50
2023/05/04 03:09:23;;;;;;;2.50;1.15;;;19.20;55.70;;;;;;4953811;28;20031;-47
2023/05/04 03:11:48;;;;;;;1.55;0.98;;;19.30;55.70;;;;;;4987355;23;21298;-50
2023/05/04 03:14:14;;;;;;;2.17;1.27;;;19.30;55.70;;;;;;4990873;28;20037;-50
2023/05/04 03:16:39;;;;;;;1.50;1.40;;;19.20;55.50;;;;;;5005325;28;20042;-51
2023/05/04 03:19:05;;;;;;;1.35;1.20;;;19.20;55.60;;;;;;4985207;28;20057;-50
2023/05/04 03:21:30;;;;;;;1.92;1.02;;;19.20;55.60;;;;;;4989838;28;25080;-50
2023/05/04 03:23:57;;;;;;;1.75;1.10;;;19.20;56.30;;;;;;5002834;28;20757;-50
2023/05/04 03:26:23;;;;;;;1.55;1.30;;;19.20;55.50;;;;;;5005602;28;20026;-52
2023/05/04 03:28:48;;;;;;;1.33;1.00;;;19.20;55.50;;;;;;4997182;28;20038;-47
2023/05/04 03:31:14;;;;;;;2.33;1.10;;;19.20;55.50;;;;;;5000493;28;20038;-50
2023/05/04 03:33:39;;;;;;;2.63;1.50;;;19.20;55.60;;;;;;4993653;28;20033;-48
2023/05/04 03:36:05;;;;;;;1.55;1.05;;;19.20;55.50;;;;;;4998545;28;20038;-48
2023/05/04 03:38:31;;;;;;;3.67;1.20;;;19.20;55.50;;;;;;5006996;28;21450;-48
2023/05/04 03:40:57;;;;;;;1.60;1.42;;;19.20;55.50;;;;;;5008925;28;20026;-48
2023/05/04 03:43:22;;;;;;;1.10;1.00;;;19.20;55.50;;;;;;5000569;28;20040;-50
2023/05/04 03:45:48;;;;;;;1.20;1.02;;;19.20;55.70;;;;;;5003175;28;20030;-48
2023/05/04 03:48:14;;;;;;;1.27;1.10;;;19.20;55.50;;;;;;5003980;28;20034;-50
2023/05/04 03:50:39;;;;;;;1.42;1.20;;;19.20;55.50;;;;;;5001266;28;20038;-47
2023/05/04 03:53:05;;;;;;;2.42;1.35;;;19.20;55.50;;;;;;5007270;28;20059;-48
2023/05/04 03:55:30;;;;;;;2.08;1.13;;;19.20;55.60;;;;;;5003599;28;20038;-49
2023/05/04 03:57:56;;;;;;;1.30;1.20;;;19.20;55.40;;;;;;5007117;28;20745;-50
2023/05/04 04:00:21;;;;;;;1.55;1.40;;;19.20;55.50;;;;;;5008500;28;20034;-47
2023/05/04 04:02:47;;;;;;;1.65;1.10;;;19.20;55.50;;;;;;5000369;28;20480;-49
2023/05/04 04:05:12;;;;;;;1.33;1.10;;;19.20;55.50;;;;;;5006696;28;20124;-50
2023/05/04 04:07:38;;;;;;;4.07;1.55;;;19.20;55.40;;;;;;5007882;28;20026;-47
2023/05/04 04:10:03;;;;;;;2.03;1.23;;;19.20;55.50;;;;;;5017647;28;20494;-48
2023/05/04 04:12:29;;;;;;;3.20;1.30;;;19.20;55.50;;;;;;5003448;28;20065;-46
2023/05/04 04:14:54;;;;;;;1.27;1.00;;;19.20;55.40;;;;;;5008060;28;20037;-49
2023/05/04 04:17:20;;;;;;;2.70;1.30;;;19.20;55.40;;;;;;5009740;28;20033;-48
2023/05/04 04:19:45;;;;;;;2.08;1.30;;;19.20;55.40;;;;;;5007804;28;20570;-48
2023/05/04 04:22:11;;;;;;;1.95;1.42;;;19.20;55.50;;;;;;5010276;28;20033;-53
2023/05/04 04:24:36;;;;;;;1.55;0.93;;;19.20;55.40;;;;;;5012708;28;20056;-49
2023/05/04 04:27:02;;;;;;;3.25;1.23;;;19.20;55.40;;;;;;5011441;28;20034;-48
2023/05/04 04:29:27;;;;;;;1.70;1.20;;;19.20;55.20;;;;;;5006648;28;20034;-47
2023/05/04 04:31:53;;;;;;;3.08;1.55;;;19.30;55.30;;;;;;5006932;28;20205;-48
2023/05/04 04:34:18;;;;;;;1.90;1.70;;;19.30;55.10;;;;;;5009917;28;20109;-48
2023/05/04 04:36:44;;;;;;;2.08;1.20;;;19.30;55.10;;;;;;5012622;28;20041;-50
2023/05/04 04:39:10;;;;;;;1.23;1.13;;;19.30;55.10;;;;;;5015815;28;20321;-51
2023/05/04 04:41:36;;;;;;;4.15;1.25;;;19.30;55.10;;;;;;5008291;28;20040;-51
2023/05/04 04:44:01;;;;;;;2.22;1.52;;;19.30;55.10;;;;;;5002067;28;20026;-50
2023/05/04 04:46:27;;;;;;;1.63;1.50;;;19.30;55.00;;;;;;5008283;28;20021;-48
2023/05/04 04:48:53;;;;;;;1.92;1.30;;;19.30;55.00;;;;;;5006170;28;20462;-46
2023/05/04 04:51:18;;;;;;;1.25;0.82;;;19.40;55.10;;;;;;5008431;28;20518;-48
2023/05/04 04:53:44;;;;;;;1.15;1.00;;;19.40;55.00;;;;;;5008623;28;20037;-50
2023/05/04 04:56:09;;;;;;;2.50;1.30;;;19.40;55.10;;;;;;5011047;28;20123;-50
2023/05/04 04:58:35;;;;;;;1.98;1.20;;;19.40;55.10;;;;;;5007333;28;20030;-48
2023/05/04 05:01:03;;;;;;;2.17;1.35;;;19.40;55.30;;;;;;5011210;28;20030;-47
2023/05/04 05:03:29;;;;;;;2.95;1.48;;;19.40;55.40;;;;;;5010248;28;20046;-49
2023/05/04 05:05:54;;;;;;;1.42;1.27;;;19.40;55.40;;;;;;5012942;28;20565;-50
2023/05/04 05:08:20;;;;;;;1.58;1.15;;;19.40;55.50;;;;;;5012380;28;20120;-51
2023/05/04 05:10:45;;;;;;;2.80;1.23;;;19.40;55.50;;;;;;5005521;28;20092;-48
2023/05/04 05:13:11;;;;;;;2.00;1.25;;;19.40;55.60;;;;;;5005551;28;20807;-49
2023/05/04 05:15:36;;;;;;;2.17;1.17;;;19.40;55.70;;;;;;5004701;28;20064;-51
2023/05/04 05:18:02;;;;;;;2.63;1.50;;;19.40;55.60;;;;;;5006418;28;20578;-48
2023/05/04 05:20:27;;;;;;;2.22;1.45;;;19.40;55.50;;;;;;5008208;28;20107;-49
2023/05/04 05:22:53;;;;;;;2.75;1.02;;;19.40;55.80;;;;;;5009274;28;20525;-49
2023/05/04 05:25:18;;;;;;;4.97;1.90;;;19.50;55.90;;;;;;5011044;28;20029;-51
2023/05/04 05:27:44;;;;;;;2.90;1.50;;;19.40;56.10;;;;;;5005063;28;20029;-48
2023/05/04 05:30:10;;;;;;;6.35;1.70;;;19.50;56.70;;;;;;5007299;28;20402;-51
2023/05/04 05:32:36;;;;;;;8.27;1.92;;;19.40;56.20;;;;;;5007713;28;20048;-47
2023/05/04 05:35:03;;;;;;;3.97;1.80;;;19.50;56.20;;;;;;5010664;28;20064;-48
2023/05/04 05:37:29;;;;;;;7.72;1.45;;;19.50;56.30;;;;;;5012519;28;20033;-51
2023/05/04 05:39:54;;;;;;;3.53;1.60;;;19.50;56.10;;;;;;5001312;28;20490;-50
2023/05/04 05:42:20;;;;;;;4.80;2.00;;;19.50;56.10;;;;;;5009003;28;20036;-48
2023/05/04 05:44:45;;;;;;;5.70;2.15;;;19.50;56.10;;;;;;5001707;28;20030;-48
2023/05/04 05:47:11;;;;;;;3.85;2.35;;;19.50;55.90;;;;;;5007794;28;20026;-48
2023/05/04 05:49:36;;;;;;;4.65;2.00;;;19.50;55.90;;;;;;5002277;28;20271;-49
2023/05/04 05:52:02;;;;;;;8.35;2.38;;;19.50;55.90;;;;;;5011448;28;20507;-49
2023/05/04 05:54:29;;;;;;;5.22;2.70;;;19.50;56.00;;;;;;5006910;28;20029;-50
2023/05/04 05:56:55;;;;;;;7.18;2.90;;;19.50;56.10;;;;;;5007948;28;20038;-50
2023/05/04 05:59:20;;;;;;;4.50;2.78;;;19.50;55.90;;;;;;5006043;28;20105;-47
2023/05/04 06:01:46;;;;;;;4.07;2.78;;;19.40;55.90;;;;;;5005474;28;20638;-51
2023/05/04 06:04:12;;;;;;;7.00;3.10;;;19.50;56.10;;;;;;5007914;28;20040;-48
2023/05/04 06:06:37;;;;;;;9.52;3.75;;;19.50;56.00;;;;;;5009814;28;20030;-50
2023/05/04 06:09:04;;;;;;;6.25;3.10;;;19.50;55.90;;;;;;5001937;28;20137;-50
2023/05/04 06:11:30;;;;;;;6.97;3.00;;;19.50;56.10;;;;;;5005213;28;20837;-49
2023/05/04 06:13:56;;;;;;;4.55;3.25;;;19.40;56.00;;;;;;5005607;28;20121;-51
2023/05/04 06:16:21;;;;;;;8.10;3.20;;;19.50;56.10;;;;;;5008500;28;20491;-48
2023/05/04 06:18:47;;;;;;;6.32;3.30;;;19.40;56.00;;;;;;5004840;28;20049;-50
2023/05/04 06:21:13;;;;;;;6.78;3.45;;;19.50;56.00;;;;;;5007666;28;20073;-48
2023/05/04 06:23:38;;;;;;;7.90;3.30;;;19.40;56.00;;;;;;5009908;28;20052;-48
2023/05/04 06:26:04;;;;;;;7.72;3.10;;;19.40;56.10;;;;;;5007574;28;20127;-48
2023/05/04 06:28:30;;;;;;;5.90;3.60;;;19.40;56.10;;;;;;5001594;28;20073;-48
2023/05/04 06:30:56;;;;;;;7.60;3.25;;;19.40;56.10;;;;;;5008131;28;20041;-48
2023/05/04 06:33:22;;;;;;;7.70;3.60;;;19.40;56.10;;;;;;5011948;28;20029;-50
2023/05/04 06:35:47;;;;;;;9.20;3.97;;;19.40;56.20;;;;;;5005324;28;21229;-49
2023/05/04 06:38:13;;;;;;;7.97;4.43;;;19.40;56.10;;;;;;5009427;28;20387;-50
2023/05/04 06:40:38;;;;;;;9.45;4.32;;;19.40;56.10;;;;;;5002994;28;20396;-50
2023/05/04 06:43:04;;;;;;;7.72;4.60;;;19.40;56.10;;;;;;5002220;28;20034;-48
2023/05/04 06:45:29;;;;;;;10.82;4.68;;;19.40;56.20;;;;;;5004905;28;20042;-48
2023/05/04 06:47:55;;;;;;;11.50;4.78;;;19.40;56.30;;;;;;5007240;28;21049;-48
2023/05/04 06:50:22;;;;;;;8.85;4.65;;;19.40;56.20;;;;;;5007833;28;20025;-51
2023/05/04 06:52:48;;;;;;;8.23;4.60;;;19.40;56.20;;;;;;5007115;28;20091;-52
2023/05/04 06:55:13;;;;;;;8.95;5.30;;;19.40;56.30;;;;;;5008035;28;20029;-50
2023/05/04 06:57:39;;;;;;;8.82;4.90;;;19.40;56.30;;;;;;5005149;28;20017;-49
2023/05/04 07:00:05;;;;;;;9.05;4.75;;;19.40;56.30;;;;;;5009053;28;20037;-51
2023/05/04 07:02:31;;;;;;;10.52;5.05;;;19.40;56.50;;;;;;5008770;28;20041;-49
2023/05/04 07:04:56;;;;;;;9.70;5.10;;;19.30;56.60;;;;;;5010246;28;20025;-49
2023/05/04 07:07:22;;;;;;;8.85;5.15;;;19.30;56.60;;;;;;5006352;28;20030;-48
2023/05/04 07:09:49;;;;;;;15.23;7.97;;;19.30;56.80;;;;;;5002016;28;20034;-52
2023/05/04 07:12:14;;;;;;;23.00;12.32;;;19.30;57.20;;;;;;5006441;28;20044;-53
2023/05/04 07:14:40;;;;;;;27.63;13.93;;;19.30;57.80;;;;;;5004789;28;20446;-49
2023/05/04 07:17:05;;;;;;;37.38;14.40;;;19.30;58.30;;;;;;5006132;28;20117;-50
2023/05/04 07:19:31;;;;;;;26.88;15.00;;;19.30;58.60;;;;;;5007439;28;20030;-48
2023/05/04 07:21:56;;;;;;;21.50;12.70;;;19.30;58.60;;;;;;5007006;28;20499;-52
2023/05/04 07:24:22;;;;;;;25.08;13.80;;;19.30;58.70;;;;;;5007386;28;20030;-49
2023/05/04 07:26:47;;;;;;;27.92;12.55;;;19.40;58.70;;;;;;5004508;28;20038;-47
2023/05/04 07:29:13;;;;;;;26.13;11.88;;;19.30;58.60;;;;;;5004827;28;20040;-48
2023/05/04 07:31:38;;;;;;;21.13;10.15;;;19.30;58.50;;;;;;5007539;28;20045;-49
2023/05/04 07:34:04;;;;;;;19.75;10.07;;;19.30;58.70;;;;;;5012589;28;20053;-51
2023/05/04 07:36:29;;;;;;;21.90;10.65;;;19.30;58.80;;;;;;5001619;28;20037;-47
2023/05/04 07:38:55;;;;;;;21.88;9.25;;;19.30;58.70;;;;;;5001996;28;20036;-51
2023/05/04 07:41:21;;;;;;;22.27;10.10;;;19.30;58.60;;;;;;5010495;28;20112;-50
2023/05/04 07:43:46;;;;;;;19.67;8.27;;;19.30;58.50;;;;;;5006250;28;22429;-48
2023/05/04 07:46:12;;;;;;;14.38;7.95;;;19.30;58.40;;;;;;5010881;28;20041;-49
2023/05/04 07:48:38;;;;;;;21.73;8.02;;;19.30;58.50;;;;;;5009798;28;20037;-49
2023/05/04 07:51:03;;;;;;;25.42;8.63;;;19.30;58.40;;;;;;5009207;28;20065;-49
2023/05/04 07:53:29;;;;;;;19.35;8.15;;;19.30;58.50;;;;;;5011941;28;20034;-47
2023/05/04 07:55:59;;;;;;;15.98;7.18;;;19.20;58.40;;;;;;5005928;28;20700;-49
2023/05/04 07:58:25;;;;;;;16.88;6.57;;;19.20;58.40;;;;;;5012783;28;20030;-49
2023/05/04 08:00:50;;;;;;;17.95;7.55;;;19.20;58.30;;;;;;5012595;28;20033;-48
2023/05/04 08:03:16;;;;;;;15.93;6.63;;;19.20;58.20;;;;;;5011381;28;20048;-49
2023/05/04 08:05:41;;;;;;;13.02;6.25;;;19.20;58.90;;;;;;4998969;28;20037;-51
2023/05/04 08:08:07;;;;;;;14.05;6.70;;;19.20;58.10;;;;;;5008802;28;20504;-47
2023/05/04 08:10:37;;;;;;;12.38;6.05;;;19.20;58.00;;;;;;5005755;28;20037;-48
2023/05/04 08:13:04;;;;;;;12.13;5.78;;;19.20;57.90;;;;;;5009229;28;20056;-46
2023/05/04 08:15:29;;;;;;;9.43;5.78;;;19.20;57.80;;;;;;5014787;28;20044;-47
2023/05/04 08:17:55;;;;;;;14.00;5.20;;;19.20;57.70;;;;;;5012337;28;20045;-49
2023/05/04 08:20:20;;;;;;;12.82;5.78;;;19.20;57.60;;;;;;5011629;28;20202;-48
2023/05/04 08:22:46;;;;;;;7.95;5.05;;;19.20;57.60;;;;;;5012312;28;20037;-47
2023/05/04 08:25:11;;;;;;;12.38;5.20;;;19.20;57.50;;;;;;5009544;28;20041;-50
2023/05/04 08:27:37;;;;;;;11.02;4.88;;;19.20;57.40;;;;;;5008088;28;20029;-48
2023/05/04 08:30:03;;;;;;;8.80;4.43;;;19.20;57.40;;;;;;5013286;28;20079;-48
2023/05/04 08:32:29;;;;;;;9.98;4.85;;;19.20;57.30;;;;;;5013560;28;20121;-49
2023/05/04 08:34:55;;;;;;;9.55;4.38;;;19.20;57.20;;;;;;5004078;28;20832;-49
2023/05/04 08:37:20;;;;;;;9.20;4.80;;;19.20;57.00;;;;;;5005105;28;20038;-49
2023/05/04 08:39:46;;;;;;;6.85;4.18;;;19.20;57.00;;;;;;5006069;28;20470;-48
2023/05/04 08:42:11;;;;;;;6.32;3.95;;;19.30;56.70;;;;;;5009468;28;20487;-48
2023/05/04 08:44:37;;;;;;;7.13;3.47;;;19.30;56.70;;;;;;5009640;28;20112;-53
2023/05/04 08:47:03;;;;;;;7.18;3.33;;;19.20;56.60;;;;;;5012817;28;20782;-47
2023/05/04 08:49:29;;;;;;;6.57;3.78;;;19.30;56.50;;;;;;5005614;28;20512;-50
2023/05/04 08:51:56;;;;;;;9.30;3.72;;;19.30;56.50;;;;;;5013698;28;20038;-48
2023/05/04 08:54:22;;;;;;;5.65;3.20;;;19.20;56.20;;;;;;5013345;28;20116;-47
2023/05/04 08:56:51;;;;;;;4.78;3.30;;;19.30;56.20;;;;;;5012096;28;20140;-50
2023/05/04 08:59:19;;;;;;;6.22;3.45;;;19.30;56.20;;;;;;5015145;28;20029;-48
2023/05/04 09:01:49;;;;;;;4.55;2.97;;;19.30;56.20;;;;;;5016396;28;20046;-54
2023/05/04 09:04:15;;;;;;;6.25;2.95;;;19.30;55.90;;;;;;5012713;28;20041;-49
2023/05/04 09:06:41;;;;;;;4.72;3.00;;;19.20;55.90;;;;;;5007519;28;20026;-47
2023/05/04 09:09:07;;;;;;;5.15;2.75;;;19.20;55.80;;;;;;5006431;28;20034;-47
2023/05/04 09:11:33;;;;;;;5.53;3.28;;;19.20;55.80;;;;;;5011848;28;20045;-48
2023/05/04 09:13:58;;;;;;;6.35;3.13;;;19.20;55.90;;;;;;5009504;28;20037;-49
2023/05/04 09:16:35;;;;;;;4.50;3.03;;;19.20;55.90;;;;;;5013871;28;20400;-51
2023/05/04 09:19:03;;;;;;;4.53;3.20;;;19.20;55.90;;;;;;5013329;28;20391;-50
2023/05/04 09:21:29;;;;;;;6.47;3.17;;;19.20;55.90;;;;;;5013742;28;20834;-49
2023/05/04 09:23:56;;;;;;;6.93;3.38;;;19.20;56.00;;;;;;5011003;28;20034;-47
2023/05/04 09:26:31;;;;;;;8.85;4.53;;;19.20;56.10;;;;;;5010699;28;20352;-50
2023/05/04 09:29:09;;;;;;;6.10;3.28;;;19.20;56.00;;;;;;5014015;28;20057;-46
2023/05/04 09:31:46;;;;;;;6.80;3.10;;;19.20;56.10;;;;;;5006162;28;21596;-48
2023/05/04 09:34:12;;;;;;;4.80;2.65;;;19.20;56.10;;;;;;5007419;28;20038;-49
2023/05/04 09:36:38;;;;;;;4.95;3.30;;;19.30;56.10;;;;;;5006761;28;20442;-49
2023/05/04 09:39:14;;;;;;;4.53;2.67;;;19.20;56.10;;;;;;5008053;28;20034;-48
2023/05/04 09:41:40;;;;;;;4.85;2.55;;;19.20;56.10;;;;;;5009354;28;20033;-48
2023/05/04 09:44:20;;;;;;;5.28;2.70;;;19.20;56.10;;;;;;5011893;28;20034;-50
2023/05/04 09:46:55;;;;;;;4.57;2.90;;;19.20;56.10;;;;;;5012817;28;20060;-54
2023/05/04 09:49:34;;;;;;;3.80;2.65;;;19.20;56.80;;;;;;5015396;28;20029;-50
2023/05/04 09:52:02;;;;;;;5.45;2.72;;;19.20;56.20;;;;;;5014026;28;20101;-47
2023/05/04 09:54:33;;;;;;;3.30;2.65;;;19.20;56.20;;;;;;5012083;28;20033;-48
2023/05/04 09:57:01;;;;;;;6.97;2.80;;;19.20;56.20;;;;;;5013595;28;20387;-48
2023/05/04 09:59:30;;;;;;;3.30;2.53;;;19.20;56.30;;;;;;5013988;28;20657;-51
2023/05/04 10:01:58;;;;;;;4.40;2.63;;;19.20;56.30;;;;;;5006869;28;20046;-50
2023/05/04 10:04:24;;;;;;;4.13;2.40;;;19.20;56.30;;;;;;5007719;28;20402;-49
2023/05/04 10:06:51;;;;;;;5.93;3.10;;;19.30;56.30;;;;;;5002948;28;20033;-49
2023/05/04 10:09:17;;;;;;;4.15;2.50;;;19.30;56.30;;;;;;5005922;28;20095;-50
2023/05/04 10:11:44;;;;;;;4.45;2.90;;;19.20;56.30;;;;;;5009680;28;20042;-50
2023/05/04 10:14:09;;;;;;;5.60;3.00;;;19.20;56.30;;;;;;5011482;28;20185;-51
2023/05/04 10:17:06;;;;;;;10.25;2.75;;;19.30;56.50;;;;;;5009807;28;20512;-49
2023/05/04 10:19:43;;;;;;;10.27;3.15;;;19.20;56.40;;;;;;5001730;28;20034;-50
2023/05/04 10:22:43;;;;;;;6.65;3.10;;;19.30;56.50;;;;;;5010297;28;20108;-50
2023/05/04 10:25:37;;;;;;;8.90;3.33;;;19.30;56.60;;;;;;5010532;28;20586;-47
2023/05/04 10:28:21;;;;;;;7.85;3.30;;;19.30;56.70;;;;;;5009578;28;20058;-48
2023/05/04 10:30:47;;;;;;;8.02;3.80;;;19.30;56.80;;;;;;5009871;28;20037;-48
2023/05/04 10:33:12;;;;;;;8.68;3.72;;;19.30;56.80;;;;;;5006717;28;20030;-49
2023/05/04 10:35:52;;;;;;;8.68;3.50;;;19.30;56.80;;;;;;5008103;28;20037;-48
2023/05/04 10:38:18;;;;;;;6.25;3.55;;;19.30;56.80;;;;;;5007556;28;20029;-48
2023/05/04 10:40:47;;;;;;;8.15;3.10;;;19.30;56.80;;;;;;5009209;28;20030;-53
2023/05/04 10:43:21;;;;;;;8.05;3.00;;;19.30;56.80;;;;;;5010410;28;20025;-49
2023/05/04 10:45:47;;;;;;;6.28;2.88;;;19.30;56.80;;;;;;5007286;28;21016;-51
2023/05/04 10:48:12;;;;;;;4.65;3.03;;;19.40;56.80;;;;;;5008270;28;20659;-50
2023/05/04 10:50:47;;;;;;;5.40;2.70;;;19.30;56.80;;;;;;5007077;28;20230;-50
2023/05/04 10:53:14;;;;;;;6.75;3.10;;;19.30;56.70;;;;;;5014897;28;20025;-48
2023/05/04 10:55:47;;;;;;;7.47;3.72;;;19.30;56.80;;;;;;5011314;28;20057;-49
2023/05/04 10:58:15;;;;;;;8.70;2.97;;;19.30;56.80;;;;;;5013909;28;20120;-51
2023/05/04 11:00:50;;;;;;;5.30;2.60;;;19.30;56.80;;;;;;5002833;28;20036;-47
2023/05/04 11:03:15;;;;;;;6.93;3.00;;;19.40;56.80;;;;;;5006870;28;20034;-47
2023/05/04 11:05:46;;;;;;;7.75;2.42;;;19.30;56.80;;;;;;5005897;28;20503;-49
2023/05/04 11:08:18;;;;;;;6.13;2.95;;;19.30;56.80;;;;;;5009626;28;20085;-50
2023/05/04 11:10:46;;;;;;;7.28;3.03;;;19.40;56.90;;;;;;4990047;28;20046;-50
2023/05/04 11:13:12;;;;;;;5.30;2.72;;;19.40;56.90;;;;;;5002497;28;20030;-47
2023/05/04 11:15:47;;;;;;;5.50;2.13;;;19.40;56.80;;;;;;5011660;28;20060;-50
2023/05/04 11:18:14;;;;;;;4.03;2.40;;;19.40;56.90;;;;;;5005019;28;20030;-49
2023/05/04 11:20:40;;;;;;;4.47;2.55;;;19.40;56.80;;;;;;5008622;28;20524;-50
2023/05/04 11:23:09;;;;;;;3.65;2.40;;;19.40;56.80;;;;;;5007527;28;20431;-47
2023/05/04 11:25:36;;;;;;;6.78;2.58;;;19.40;56.80;;;;;;5005756;28;20030;-49
2023/05/04 11:28:02;;;;;;;4.50;2.28;;;19.40;56.80;;;;;;5019855;28;20041;-50
2023/05/04 11:30:34;;;;;;;7.88;2.28;;;19.40;56.80;;;;;;4998890;28;20077;-53
2023/05/04 11:33:01;;;;;;;4.72;2.10;;;19.40;56.90;;;;;;4993465;28;20048;-49
2023/05/04 11:35:27;;;;;;;7.68;2.50;;;19.40;56.80;;;;;;4998425;28;20130;-48
2023/05/04 11:37:54;;;;;;;8.18;3.78;;;19.40;56.80;;;;;;5000742;28;20080;-48
2023/05/04 11:40:22;;;;;;;5.30;2.05;;;19.40;57.00;;;;;;5013411;28;20056;-47
2023/05/04 11:42:48;;;;;;;7.45;2.42;;;19.40;57.00;;;;;;5007478;28;20091;-48
2023/05/04 11:45:18;;;;;;;6.82;2.40;;;19.40;57.30;;;;;;5011921;28;20484;-49
2023/05/04 11:47:44;;;;;;;5.20;2.28;;;19.40;57.30;;;;;;4993995;28;20030;-48
2023/05/04 11:50:12;;;;;;;7.25;2.40;;;19.50;57.30;;;;;;4992732;28;20034;-49
2023/05/04 11:52:42;;;;;;;6.55;2.28;;;19.40;57.40;;;;;;4996807;28;20029;-51
2023/05/04 11:55:10;;;;;;;7.15;2.13;;;19.50;57.50;;;;;;5006318;28;20218;-49
2023/05/04 11:57:36;;;;;;;3.90;2.35;;;19.50;57.40;;;;;;5005923;28;20068;-47
2023/05/04 12:00:07;;;;;;;6.90;2.05;;;19.40;57.40;;;;;;4998308;28;20040;-49
2023/05/04 12:02:33;;;;;;;6.32;2.67;;;19.50;57.50;;;;;;5005896;28;20037;-48
2023/05/04 12:05:00;;;;;;;9.23;2.90;;;19.50;57.50;;;;;;5017130;28;20039;-48
2023/05/04 12:07:26;;;;;;;5.38;2.47;;;19.50;57.30;;;;;;5011968;28;20076;-47
2023/05/04 12:09:51;;;;;;;7.10;2.30;;;19.50;57.30;;;;;;5007806;28;20582;-48
2023/05/04 12:12:19;;;;;;;5.90;1.75;;;19.50;57.20;;;;;;5018563;28;20049;-52
2023/05/04 12:14:47;;;;;;;6.38;2.58;;;19.50;57.20;;;;;;4997990;28;20032;-49
2023/05/04 12:17:13;;;;;;;5.35;2.13;;;19.40;57.20;;;;;;4996582;28;20411;-49
2023/05/04 12:19:56;;;;;;;6.25;2.53;;;19.50;57.20;;;;;;4991739;28;20030;-48
2023/05/04 12:22:34;;;;;;;3.55;1.90;;;19.50;57.20;;;;;;4999038;28;20033;-48
2023/05/04 12:25:00;;;;;;;5.03;2.95;;;19.40;57.10;;;;;;5009070;28;20030;-49
2023/05/04 12:27:26;;;;;;;4.38;1.73;;;19.40;57.20;;;;;;5011327;28;20674;-48
2023/05/04 12:29:52;;;;;;;4.95;2.17;;;19.40;57.20;;;;;;4995528;28;20038;-50
2023/05/04 12:32:18;;;;;;;5.25;1.88;;;19.40;57.20;;;;;;4994736;28;20044;-50
2023/05/04 12:34:44;;;;;;;3.63;2.17;;;19.40;57.20;;;;;;4997637;28;20061;-47
2023/05/04 12:37:10;;;;;;;6.88;1.92;;;19.40;57.20;;;;;;5003899;28;20050;-48
2023/05/04 12:39:36;;;;;;;2.42;1.80;;;19.50;57.20;;;;;;5008559;28;20041;-49
2023/05/04 12:42:03;;;;;;;4.18;2.22;;;19.50;57.20;;;;;;5009572;28;20033;-52
2023/05/04 12:44:29;;;;;;;6.45;2.25;;;19.50;57.10;;;;;;5009453;28;20088;-47